Airfield :
LOGIN :

Register | Disclaimer

   EN    FR    IT 

 










Legend :    VFR   Marginal VFR   IFR   Intensive IFR   Very Intensive IFR
Visi :
Ceiling :
>= 8 km
>= 3000ft
5 to 8 km
1000 to 3000 ft
1500m to 5 km
500 to 1000 ft
800 to 1500m
200 to 500 ft
< 800m
< 200 ft
Symbols :   Thunderstorms  Fog  Heavy snow  Heavy precipitations  Wind > 20 kt
SIGMETs :     Misc.  Thunderstorms  Icing  Turbulence  Mountain Waves  Volcanic Ashes







- Airport Elevation : 1674 ft
- IATA code : BRN


LSZB - Bern Belp

CURRENT METAR :
  • 172020Z AUTO 25005KT 200V280 9999 FEW050 03/M02 Q1014

EXPIRED METARs :
  • 171950Z AUTO 24007KT 220V280 CAVOK 03/M02 Q1014
  • 171920Z AUTO 24006KT 210V280 9999 NCD 04/M01 Q1014
  • 171850Z 26006KT 230V330 9999 FEW008 SCT050 BKN120 04/M00 Q1013 NOSIG
  • 171820Z 30007KT 230V330 9999 FEW010 SCT036 BKN048 04/M00 Q1013 NOSIG
  • 171750Z 25008KT 220V280 9999 SHRA FEW030 SCT070 BKN090 03/00 Q1013 RERASN NOSIG

TAF TAF LSZB
Valid from the 17 at 15:00 until the 18 at 00:00 UTC


171425Z 1715/1724 25008KT 9999 -SHRA FEW020 BKN030
PROB40
TEMPO 1715/1718 SHRA BKN020
PROB40
TEMPO 1717/1721 4000 -SHRASN BKN013
PROB40
TEMPO 1720/1724 3000 -SHSN BKN010
ATIS : +41 22 417 40 76
No reported NOTAMs for that airfield.



MET'MAP, your aeronautical weather chart ! - Copyright ORBIFLY December 2007 - Disclaimer

ORBIFLY MET'MAP TEAM :

Programming & Development : Alexandra Zaïnal
Concept & Development : Baudouin d'Aumeries
Co-Development & Prog : Marc-Olivier Méhu
Technical & hardware support : Manuel Goepfert

Contact : metmap@orbifly.com




SOURCES & CREDITS :

   NOAA